Latest Weather Observations for Cobar

IDN60801

Issued at 4:02 pm EST Tuesday 16 July 2019 (issued every 10 minutes, with the page automatically refreshed every 10 minutes)

About weather observations | Map of weather stations | Latest weather observations for NSW | Other Formats
Station Details ID: 048027 Name: COBAR MO Lat: -31.48 Lon: 145.83 Height: 260.0 m
Data from the previous 72 hours. | See also: Recent months at Cobar
Date/Time
EST
Temp
°C
App
Temp
°C
Dew
Point
°C
Rel
Hum
%
Delta-T
°C
Wind Press
QNH
hPa
Press
MSL
hPa
Rain since
9am
mm
Dir  Spd
km/h
Gust
km/h
Spd
kts
Gust
kts
16/04:00pm 15.4 10.6 5.6 52 4.7 SSW 20 28 11 15 1024.2 1024.5 0.0
16/03:30pm 15.6 11.0 5.8 52 4.8 SSW 19 30 10 16 1024.2 1024.5 0.0
16/03:00pm 15.6 10.9 6.1 53 4.6 SW 20 28 11 15 1024.2 1024.5 0.0
16/02:30pm 15.3 10.7 6.3 55 4.4 SW 20 28 11 15 1024.5 1024.7 0.0
16/02:00pm 15.0 11.0 6.8 58 4.0 SW 17 24 9 13 1024.9 1025.1 0.0
16/01:30pm 14.1 10.1 6.7 61 3.6 SSW 17 24 9 13 1025.2 1025.4 0.0
16/01:00pm 13.2 8.7 6.1 62 3.4 SW 19 28 10 15 1025.5 1025.7 0.0
16/12:30pm 13.4 9.1 7.2 66 3.1 SW 19 30 10 16 1026.1 1026.4 0.0
16/12:00pm 12.5 8.5 6.5 67 2.9 SW 17 28 9 15 1026.4 1026.7 0.0
16/11:30am 12.0 8.0 6.7 70 2.6 SW 17 24 9 13 1026.9 1027.2 0.0
16/11:00am 11.6 7.2 6.7 72 2.3 SW 19 26 10 14 1027.1 1027.4 0.0
16/10:30am 11.5 7.5 6.8 73 2.3 SSW 17 22 9 12 1027.2 1027.5 0.0
16/10:00am 11.1 6.7 6.6 74 2.1 SW 19 28 10 15 1027.2 1027.5 0.0
16/09:30am 10.7 6.2 6.8 77 1.9 SSW 20 32 11 17 1027.0 1027.3 0.0
16/09:00am 10.3 6.7 6.8 79 1.7 SW 15 20 8 11 1026.7 1027.0 0.8
16/08:30am 9.8 6.6 6.7 81 1.5 SSW 13 20 7 11 1026.5 1026.8 0.8
16/08:00am 9.4 6.1 6.5 82 1.4 SW 13 17 7 9 1026.4 1026.7 0.8
16/07:30am 9.0 6.4 6.3 83 1.3 SSW 9 13 5 7 1026.2 1026.5 0.8
16/07:17am 9.0 6.4 6.1 82 1.4 SSW 9 15 5 8 1026.1 1026.4 0.8
16/07:00am 9.1 5.8 6.2 82 1.3 SSW 13 19 7 10 1026.2 1026.5 0.8
16/06:30am 9.1 5.0 6.2 82 1.4 SSW 17 30 9 16 1026.0 1026.2 0.8
16/06:29am 9.1 5.0 6.0 81 1.4 SSW 17 30 9 16 1025.9 1026.1 0.8
16/06:00am 9.2 4.6 5.8 79 1.6 SSW 19 26 10 14 1025.4 1025.6 0.8
16/05:30am 9.0 6.3 5.7 80 1.5 S 9 11 5 6 1024.8 1025.0 0.8
16/05:00am 9.0 5.5 5.6 79 1.6 S 13 20 7 11 1024.6 1024.8 0.8
16/04:30am 9.5 6.4 5.7 77 1.8 S 11 20 6 11 1024.2 1024.5 0.8
16/04:00am 9.8 5.6 5.6 75 1.9 SSW 17 22 9 12 1024.6 1024.8 0.8
16/03:30am 9.9 6.1 5.7 75 2.0 SSW 15 24 8 13 1024.9 1025.1 0.8
16/03:00am 9.9 5.3 5.5 74 2.0 S 19 30 10 16 1024.8 1025.0 0.8
16/02:30am 10.0 6.1 5.4 73 2.1 SSW 15 24 8 13 1025.0 1025.2 0.8
16/02:00am 10.0 5.7 5.2 72 2.2 S 17 28 9 15 1025.0 1025.2 0.8
16/01:30am 10.1 5.8 5.1 71 2.3 S 17 26 9 14 1025.1 1025.3 0.8
16/01:00am 10.3 6.0 5.3 71 2.3 SSW 17 30 9 16 1025.5 1025.7 0.8
16/12:30am 9.6 6.0 5.0 73 2.1 SSW 13 19 7 10 1025.6 1025.8 0.8
16/12:00am 9.2 5.6 4.8 74 2.0 SSW 13 19 7 10 1025.8 1026.0 0.8
 
Date/Time
EST
Temp
°C
App
Temp
°C
Dew
Point
°C
Rel
Hum
%
Delta-T
°C
Wind Press
QNH
hPa
Press
MSL
hPa
Rain since
9am
mm
Dir  Spd
km/h
Gust
km/h
Spd
kts
Gust
kts
15/11:30pm 8.7 5.4 4.3 74 2.0 S 11 17 6 9 1026.1 1026.4 0.8
15/11:00pm 8.4 5.0 4.0 74 1.9 SSW 11 17 6 9 1026.1 1026.4 0.8
15/10:30pm 8.3 4.5 4.1 75 1.9 SSW 13 20 7 11 1025.9 1026.1 0.8
15/10:00pm 7.7 4.2 3.7 76 1.7 SW 11 13 6 7 1026.1 1026.4 0.8
15/09:30pm 8.0 4.9 3.7 74 1.9 SSW 9 13 5 7 1026.2 1026.5 0.8
15/09:00pm 8.2 4.7 3.7 73 2.0 SW 11 13 6 7 1026.2 1026.5 0.8
15/08:30pm 8.3 5.2 3.8 73 2.0 SW 9 13 5 7 1026.1 1026.4 0.8
15/08:00pm 8.5 5.4 3.8 72 2.1 SW 9 13 5 7 1026.2 1026.5 0.8
15/07:30pm 8.7 5.6 3.7 71 2.2 SW 9 11 5 6 1026.0 1026.2 0.8
15/07:00pm 9.5 6.1 3.9 68 2.5 SW 11 15 6 8 1025.7 1025.9 0.8
15/06:30pm 9.6 6.2 3.8 67 2.6 SW 11 15 6 8 1025.5 1025.7 0.8
15/06:00pm 9.9 6.8 3.4 64 2.9 SW 9 9 5 5 1025.2 1025.4 0.8
15/05:30pm 11.6 7.7 3.6 58 3.6 SW 13 22 7 12 1025.3 1025.5 0.8
15/05:00pm 12.1 7.9 3.9 57 3.7 SSW 15 24 8 13 1025.0 1025.2 0.8
15/04:30pm 12.6 8.1 4.3 57 3.8 SW 17 22 9 12 1024.8 1025.0 0.8
15/04:00pm 12.9 7.8 4.3 56 4.0 SW 20 28 11 15 1024.8 1025.0 0.8
15/03:30pm 13.3 7.8 4.2 54 4.2 SW 22 33 12 18 1024.7 1024.9 0.8
15/03:00pm 12.4 7.4 4.4 58 3.7 SSW 20 30 11 16 1024.6 1024.8 0.8
15/02:30pm 12.8 7.8 4.5 57 3.8 SSW 20 30 11 16 1024.4 1024.6 0.8
15/02:00pm 12.3 7.0 4.8 60 3.5 SW 22 32 12 17 1024.5 1024.7 0.8
15/01:30pm 12.4 6.7 5.1 61 3.4 SSW 24 41 13 22 1024.7 1024.9 0.8
15/01:00pm 11.3 6.4 5.2 66 2.8 SW 20 33 11 18 1024.9 1025.1 0.8
15/12:30pm 11.6 6.4 5.5 66 2.9 SSW 22 33 12 18 1024.7 1024.9 0.8
15/12:00pm 11.4 5.9 5.9 69 2.6 SSW 24 35 13 19 1025.1 1025.3 0.8
15/11:30am 10.7 5.8 6.8 77 1.9 SW 22 30 12 16 1025.6 1025.8 0.8
15/11:00am 9.8 5.4 7.2 84 1.2 SW 20 32 11 17 1025.6 1025.8 0.8
15/10:51am 9.9 5.2 7.8 87 1.0 SW 22 32 12 17 1025.6 1025.8 0.8
15/10:30am 9.3 5.2 7.9 91 0.7 SW 19 28 10 15 1025.8 1026.0 0.8
15/10:26am 9.5 6.0 8.7 95 0.4 SW 17 26 9 14 1025.8 1026.0 0.8
15/10:02am 8.8 5.9 8.2 96 0.3 SW 13 20 7 11 1025.9 1026.1 0.6
15/10:01am 8.8 5.9 8.2 96 0.3 SW 13 20 7 11 1025.8 1026.0 0.6
15/10:00am 8.9 6.0 8.3 96 0.3 SW 13 19 7 10 1025.8 1026.0 0.6
15/09:30am 8.4 4.0 7.3 93 0.5 SW 20 32 11 17 1025.5 1025.7 0.2
15/09:24am 8.7 4.3 7.3 91 0.7 SW 20 30 11 16 1025.4 1025.6 0.0
15/09:00am 8.4 4.0 7.2 92 0.6 WSW 20 32 11 17 1025.0 1025.2 0.0
15/08:30am 8.0 3.0 6.5 90 0.7 WSW 22 32 12 17 1024.8 1025.0 0.0
15/08:14am 8.4 3.3 5.9 84 1.2 WSW 22 33 12 18 1024.7 1024.9 0.0
15/08:00am 8.5 4.2 5.1 79 1.5 WSW 17 24 9 13 1024.6 1024.8 0.0
15/07:30am 8.7 3.7 4.7 76 1.8 WSW 20 32 11 17 1024.7 1024.9 0.0
15/07:00am 8.8 3.4 4.4 74 2.0 WSW 22 32 12 17 1024.5 1024.7 0.0
15/06:30am 8.9 3.8 4.1 72 2.1 WSW 20 30 11 16 1024.0 1024.3 0.0
15/06:00am 9.0 3.1 3.8 70 2.3 WSW 24 35 13 19 1024.0 1024.3 0.0
15/05:30am 9.1 3.2 3.7 69 2.4 WSW 24 33 13 18 1023.5 1023.8 0.0
15/05:00am 9.2 4.0 3.6 68 2.5 WSW 20 33 11 18 1023.3 1023.6 0.0
15/04:30am 9.2 2.9 3.6 68 2.5 WSW 26 41 14 22 1022.9 1023.2 0.0
15/04:00am 9.2 3.2 3.6 68 2.5 W 24 32 13 17 1023.1 1023.4 0.0
15/03:30am 9.3 3.7 3.5 67 2.6 W 22 32 12 17 1023.4 1023.7 0.0
15/03:00am 9.1 3.1 3.3 67 2.5 WSW 24 33 13 18 1023.5 1023.8 0.0
15/02:30am 9.5 4.3 3.5 66 2.6 W 20 32 11 17 1023.7 1024.0 0.0
15/02:00am 8.9 4.6 3.1 67 2.5 W 15 22 8 12 1023.7 1024.0 0.0
15/01:30am 9.3 4.6 2.9 64 2.8 W 17 22 9 12 1023.7 1024.0 0.0
15/01:00am 9.3 5.3 2.9 64 2.8 W 13 20 7 11 1023.8 1024.1 0.0
15/12:30am 9.0 5.3 2.6 64 2.7 WNW 11 17 6 9 1024.2 1024.5 0.0
15/12:00am 9.3 4.8 2.4 62 2.9 W 15 20 8 11 1024.1 1024.4 0.0
 
Date/Time
EST
Temp
°C
App
Temp
°C
Dew
Point
°C
Rel
Hum
%
Delta-T
°C
Wind Press
QNH
hPa
Press
MSL
hPa
Rain since
9am
mm
Dir  Spd
km/h
Gust
km/h
Spd
kts
Gust
kts
14/11:30pm 9.8 4.9 2.2 59 3.3 W 17 20 9 11 1024.7 1024.9 0.0
14/11:00pm 9.7 5.2 2.3 60 3.2 WSW 15 20 8 11 1025.0 1025.2 0.0
14/10:30pm 9.7 4.6 2.8 62 3.0 WSW 19 28 10 15 1025.4 1025.6 0.0
14/10:00pm 9.7 4.3 2.6 61 3.1 WSW 20 32 11 17 1025.8 1026.0 0.0
14/09:30pm 9.5 4.8 3.0 64 2.8 WSW 17 26 9 14 1026.2 1026.5 0.0
14/09:00pm 9.5 5.1 2.8 63 2.9 WSW 15 20 8 11 1026.3 1026.6 0.0
14/08:30pm 9.4 4.2 2.7 63 2.9 WSW 19 26 10 14 1026.4 1026.7 0.0
14/08:00pm 8.5 4.1 2.7 67 2.5 WSW 15 22 8 12 1026.3 1026.6 0.0
14/07:30pm 8.2 4.1 2.2 66 2.5 WSW 13 17 7 9 1026.0 1026.2 0.0
14/07:00pm 8.9 4.4 2.0 62 2.9 WSW 15 19 8 10 1026.0 1026.2 0.0
14/06:30pm 9.3 5.1 1.7 59 3.2 WSW 13 20 7 11 1026.0 1026.2 0.0
14/06:00pm 9.9 5.3 1.5 56 3.5 WSW 15 22 8 12 1025.9 1026.1 0.0
14/05:30pm 10.6 5.6 1.2 52 4.0 WSW 17 24 9 13 1025.8 1026.0 0.0
14/05:00pm 11.3 5.2 0.4 47 4.5 WSW 22 28 12 15 1025.9 1026.1 0.0
14/04:30pm 12.1 6.3 -0.1 43 5.1 WSW 20 30 11 16 1025.8 1026.0 0.0
14/04:00pm 12.6 7.0 0.0 42 5.2 WSW 19 28 10 15 1025.7 1025.9 0.0
14/03:30pm 12.6 7.0 0.0 42 5.3 WSW 19 30 10 16 1025.7 1025.9 0.0
14/03:00pm 12.7 7.1 -0.2 41 5.4 WSW 19 26 10 14 1025.9 1026.1 0.0
14/02:30pm 12.5 6.7 0.0 42 5.2 WSW 20 28 11 15 1026.2 1026.5 0.0
14/02:00pm 12.4 6.9 0.5 44 5.0 WSW 19 26 10 14 1026.6 1026.9 0.0
14/01:30pm 11.4 6.6 0.2 46 4.7 WSW 15 24 8 13 1026.8 1027.1 0.0
14/01:00pm 11.1 6.4 1.1 50 4.2 WSW 15 30 8 16 1027.5 1027.8 0.0
14/12:30pm 11.0 6.4 1.3 51 4.1 WSW 15 20 8 11 1028.1 1028.4 0.0
14/12:00pm 10.7 5.6 1.0 51 4.0 SW 17 26 9 14 1028.9 1029.1 0.0
14/11:30am 10.0 4.7 1.6 56 3.6 SW 19 26 10 14 1029.3 1029.6 0.0
14/11:00am 9.8 4.8 1.5 56 3.5 SW 17 28 9 15 1029.7 1030.0 0.0
14/10:30am 8.6 4.1 2.4 65 2.6 SW 15 20 8 11 1030.0 1030.3 0.0
14/10:00am 7.4 3.8 2.7 72 2.0 SW 11 17 6 9 1030.0 1030.3 0.0
14/09:30am 6.4 2.0 2.7 77 1.6 SW 15 20 8 11 1029.8 1030.1 0.0
14/09:00am 5.4 1.4 2.9 84 1.0 WSW 13 19 7 10 1029.6 1029.9 0.0
14/08:30am 4.1 0.8 2.3 88 0.7 WSW 9 13 5 7 1029.3 1029.6 0.0
14/08:00am 2.5 -0.6 1.2 91 0.5 SW 7 11 4 6 1029.0 1029.2 0.0
14/07:30am 1.7 -1.6 0.2 90 0.6 SW 7 7 4 4 1028.7 1028.9 0.0
14/07:00am 2.2 -1.8 0.7 90 0.6 WSW 11 13 6 7 1028.5 1028.7 0.0
14/06:30am 2.6 -1.4 0.8 88 0.7 WSW 11 13 6 7 1028.1 1028.4 0.0
14/06:00am 3.2 -0.7 1.3 87 0.7 WSW 11 13 6 7 1027.9 1028.2 0.0
14/05:30am 3.1 -0.4 1.0 86 0.8 WSW 9 13 5 7 1027.6 1027.9 0.0
14/05:00am 3.2 -0.8 0.8 84 0.9 WSW 11 13 6 7 1027.4 1027.7 0.0
14/04:30am 3.3 -0.7 0.7 83 1.0 WSW 11 15 6 8 1027.4 1027.7 0.0
14/04:00am 3.7 -0.3 0.8 81 1.1 W 11 15 6 8 1027.5 1027.8 0.0
14/03:30am 3.8 -0.2 0.8 81 1.2 WSW 11 13 6 7 1027.5 1027.8 0.0
14/03:00am 3.6 -0.4 0.8 82 1.1 WSW 11 13 6 7 1027.5 1027.8 0.0
14/02:30am 2.8 -0.8 0.9 87 0.7 W 9 13 5 7 1027.5 1027.8 0.0
14/02:00am 2.5 -1.2 0.2 85 0.9 W 9 13 5 7 1027.4 1027.7 0.0
14/01:30am 3.0 -1.0 0.2 82 1.1 W 11 13 6 7 1027.4 1027.7 0.0
14/01:00am 4.6 0.6 0.7 76 1.5 WSW 11 11 6 6 1027.4 1027.7 0.0
14/12:30am 4.2 0.6 0.4 76 1.5 WSW 9 11 5 6 1027.6 1027.9 0.0
14/12:00am 3.8 0.6 0.5 79 1.3 W 7 11 4 6 1027.7 1028.0 0.0
 
Date/Time
EST
Temp
°C
App
Temp
°C
Dew
Point
°C
Rel
Hum
%
Delta-T
°C
Wind Press
QNH
hPa
Press
MSL
hPa
Rain since
9am
mm
Dir  Spd
km/h
Gust
km/h
Spd
kts
Gust
kts
13/11:30pm 3.5 -0.2 0.2 79 1.3 WNW 9 11 5 6 1027.7 1028.0 0.0
13/11:00pm 4.5 1.3 0.5 75 1.5 W 7 11 4 6 1027.8 1028.1 0.0
13/10:30pm 4.8 1.5 0.4 73 1.7 W 7 11 4 6 1027.8 1028.1 0.0
13/10:00pm 5.0 1.4 0.4 72 1.8 WNW 9 13 5 7 1027.5 1027.8 0.0
13/09:30pm 4.9 1.2 -0.1 70 1.9 WNW 9 13 5 7 1027.5 1027.8 0.0
13/09:00pm 5.9 1.8 0.0 66 2.3 W 11 15 6 8 1027.0 1027.3 0.0
13/08:30pm 6.6 3.0 0.3 64 2.5 WSW 9 11 5 6 1026.7 1027.0 0.0
13/08:00pm 6.5 3.2 0.0 63 2.5 WSW 7 9 4 5 1026.5 1026.8 0.0
13/07:30pm 7.2 3.5 0.0 60 2.9 SW 9 11 5 6 1026.2 1026.5 0.0
13/07:00pm 8.2 4.1 0.0 56 3.3 SW 11 13 6 7 1025.8 1026.0 0.0
13/06:30pm 8.8 4.7 0.0 54 3.5 SW 11 17 6 9 1025.4 1025.6 0.0
13/06:00pm 8.9 4.8 -0.1 53 3.6 SW 11 13 6 7 1024.9 1025.1 0.0
13/05:30pm 10.4 5.2 -0.1 48 4.3 SW 17 22 9 12 1024.5 1024.7 0.0
13/05:00pm 11.2 4.9 -0.9 43 4.9 WSW 22 33 12 18 1024.0 1024.3 0.0
13/04:30pm 11.9 5.2 -0.9 41 5.2 WSW 24 33 13 18 1023.6 1023.9 0.0

Other formats

Comma delimited format used in spreadsheet applications
http://www.bom.gov.au/fwo/IDN60801/IDN60801.94711.axf

JavaScript Object Notation format (JSON) in row-major order
http://www.bom.gov.au/fwo/IDN60801/IDN60801.94711.json

Data quality

Most of these data are generated automatically and are frequently updated. Quality checks on data are not normally performed. It is possible for incorrect values to appear. Refer to information at About Latest Weather Observations and please check the disclaimer before using these data.